createdAt,value
2018-07-17T00:01:40.455Z,88.40
2018-07-17T00:04:09.519Z,88.50
2018-07-17T00:06:40.409Z,89.00
2018-07-17T00:09:10.059Z,89.10
2018-07-17T00:11:41.389Z,89.40
2018-07-17T00:14:10.537Z,89.50
2018-07-17T00:16:40.298Z,89.10
2018-07-17T00:21:54.344Z,88.80
2018-07-17T00:24:32.161Z,88.60
2018-07-17T00:27:05.614Z,88.50
2018-07-17T00:29:37.623Z,88.30
2018-07-17T00:32:07.814Z,88.60
2018-07-17T00:34:36.759Z,89.10
2018-07-17T00:37:07.406Z,89.30
2018-07-17T00:39:53.103Z,89.30
2018-07-17T00:42:26.825Z,89.50
2018-07-17T00:44:56.019Z,90.00
2018-07-17T00:47:26.506Z,89.70
2018-07-17T00:49:55.687Z,90.00
2018-07-17T00:52:26.918Z,90.10
2018-07-17T00:54:56.970Z,90.10
2018-07-17T00:57:26.727Z,90.10
2018-07-17T00:59:57.200Z,90.10
2018-07-17T01:02:32.420Z,89.90
2018-07-17T01:05:07.378Z,90.00
2018-07-17T01:07:43.215Z,90.00
2018-07-17T01:10:17.406Z,90.10
2018-07-17T01:12:47.703Z,89.90
2018-07-17T01:15:21.088Z,90.10
2018-07-17T01:17:50.163Z,90.00
2018-07-17T01:20:19.271Z,90.10
2018-07-17T01:22:49.608Z,90.20
2018-07-17T01:25:18.890Z,90.10
2018-07-17T01:27:48.283Z,90.10
2018-07-17T01:30:18.421Z,90.10
2018-07-17T01:32:47.467Z,90.20
2018-07-17T01:35:16.532Z,90.40
2018-07-17T01:37:45.454Z,90.50
2018-07-17T01:40:14.427Z,90.80
2018-07-17T01:42:48.193Z,91.20
2018-07-17T01:45:17.313Z,91.30
2018-07-17T01:47:46.753Z,91.00
2018-07-17T01:50:17.169Z,91.00
2018-07-17T01:52:46.292Z,90.90
2018-07-17T01:55:17.301Z,90.80
2018-07-17T01:57:47.407Z,90.90
2018-07-17T02:00:19.571Z,91.10
2018-07-17T02:02:50.317Z,91.30
2018-07-17T02:05:29.114Z,91.20
2018-07-17T02:08:02.608Z,91.20
2018-07-17T02:10:32.062Z,91.40
2018-07-17T02:13:08.573Z,91.80
2018-07-17T02:15:39.185Z,91.90
2018-07-17T02:18:08.325Z,91.90
2018-07-17T02:20:44.200Z,92.00
2018-07-17T02:23:15.721Z,91.90
2018-07-17T02:25:45.639Z,91.70
2018-07-17T02:28:17.394Z,91.70
2018-07-17T02:30:50.140Z,91.60
2018-07-17T02:33:20.829Z,91.60
2018-07-17T02:35:50.898Z,91.40
2018-07-17T02:38:23.210Z,91.20
2018-07-17T02:40:55.722Z,91.00
2018-07-17T02:43:25.581Z,90.90
2018-07-17T02:45:55.134Z,90.60
2018-07-17T02:48:25.108Z,90.90
2018-07-17T02:50:55.923Z,90.60
2018-07-17T02:53:26.664Z,90.50
2018-07-17T02:55:56.545Z,90.50
2018-07-17T02:58:26.754Z,90.30
2018-07-17T03:00:55.799Z,90.60
2018-07-17T03:03:24.769Z,90.20
2018-07-17T03:05:53.982Z,90.20
2018-07-17T03:08:22.959Z,90.10
2018-07-17T03:10:53.312Z,90.40
2018-07-17T03:13:22.327Z,90.50
2018-07-17T03:15:52.487Z,90.50
2018-07-17T03:18:22.253Z,90.30
2018-07-17T03:20:54.946Z,90.20
2018-07-17T03:23:26.261Z,90.20
2018-07-17T03:25:59.019Z,90.30
2018-07-17T03:28:29.270Z,90.50
2018-07-17T03:31:00.089Z,90.50
2018-07-17T03:36:26.364Z,90.10
2018-07-17T03:38:59.139Z,90.10
2018-07-17T03:41:29.140Z,90.10
2018-07-17T03:43:59.685Z,90.30
2018-07-17T03:46:30.156Z,90.30
2018-07-17T03:49:01.793Z,90.40
2018-07-17T03:51:31.014Z,90.60
2018-07-17T03:54:03.111Z,90.40
2018-07-17T03:56:33.037Z,90.50
2018-07-17T04:01:41.245Z,90.60
2018-07-17T04:04:13.200Z,90.40
2018-07-17T04:06:42.167Z,90.30
2018-07-17T04:09:11.140Z,90.30
2018-07-17T04:11:40.104Z,90.50
2018-07-17T04:14:09.145Z,90.50
2018-07-17T04:16:43.488Z,90.60
2018-07-17T04:19:13.427Z,90.40
2018-07-17T04:22:15.719Z,90.30
2018-07-17T04:25:20.858Z,90.10
2018-07-17T04:27:50.782Z,90.00
2018-07-17T04:30:20.820Z,89.90
2018-07-17T04:32:50.840Z,89.80
2018-07-17T04:35:19.834Z,89.80
2018-07-17T04:37:48.912Z,90.10
2018-07-17T04:40:19.403Z,90.10
2018-07-17T04:42:52.257Z,90.10
2018-07-17T04:45:25.893Z,90.00
2018-07-17T04:47:55.577Z,90.40
2018-07-17T04:50:25.530Z,90.00
2018-07-17T04:53:01.993Z,90.00
2018-07-17T04:55:31.526Z,90.00
2018-07-17T04:58:06.939Z,89.50
2018-07-17T05:00:37.046Z,89.50
2018-07-17T05:03:08.684Z,89.50
2018-07-17T05:05:37.669Z,89.30
2018-07-17T05:08:07.172Z,89.30
2018-07-17T05:10:36.466Z,88.50
2018-07-17T05:13:07.182Z,87.90
2018-07-17T05:15:37.373Z,87.10
2018-07-17T05:18:21.487Z,86.60
2018-07-17T05:20:51.303Z,85.50
2018-07-17T05:31:48.133Z,80.40
2018-07-17T05:34:18.766Z,77.90
2018-07-17T05:36:47.795Z,77.30
2018-07-17T05:39:17.568Z,76.00
2018-07-17T05:41:46.536Z,72.60
2018-07-17T05:44:15.502Z,70.70
2018-07-17T05:46:46.274Z,68.00
2018-07-17T05:49:15.298Z,66.00
2018-07-17T05:51:44.240Z,64.90
2018-07-17T05:54:13.252Z,63.50
2018-07-17T05:56:42.256Z,63.10
2018-07-17T06:00:32.923Z,61.30
2018-07-17T06:03:06.116Z,60.10
2018-07-17T06:06:01.971Z,59.50
2018-07-17T06:08:43.884Z,59.50
2018-07-17T06:11:19.371Z,58.30
2018-07-17T06:13:56.540Z,58.30
2018-07-17T06:16:33.262Z,57.60
2018-07-17T06:19:19.062Z,57.10
2018-07-17T06:24:47.729Z,57.00
2018-07-17T06:27:42.557Z,56.80
2018-07-17T06:33:30.376Z,56.40
2018-07-17T06:36:15.850Z,56.10
2018-07-17T06:39:16.733Z,55.60
2018-07-17T06:42:10.211Z,55.80
2018-07-17T06:45:01.300Z,55.40
2018-07-17T06:53:10.836Z,54.50
2018-07-17T06:56:01.678Z,53.20
2018-07-17T06:58:36.785Z,52.70
2018-07-17T07:01:16.296Z,51.80
2018-07-17T07:03:56.094Z,51.70
2018-07-17T07:06:34.441Z,51.20
2018-07-17T07:09:30.667Z,50.50
2018-07-17T07:12:12.890Z,50.70
2018-07-17T07:14:59.568Z,50.00
2018-07-17T07:22:11.657Z,50.30
2018-07-17T07:24:59.238Z,49.50
2018-07-17T07:42:17.565Z,48.90
2018-07-17T07:45:15.762Z,48.30
2018-07-17T07:47:58.300Z,48.40
2018-07-17T07:51:26.897Z,48.50
2018-07-17T07:57:26.513Z,48.50
2018-07-17T08:06:26.337Z,48.00
2018-07-17T08:09:26.325Z,48.50
2018-07-17T08:12:07.161Z,48.40
2018-07-17T08:14:40.302Z,47.70
2018-07-17T08:18:10.449Z,47.50
2018-07-17T08:21:02.846Z,47.70
2018-07-17T08:29:35.037Z,49.00
2018-07-17T08:33:50.054Z,49.30
2018-07-17T08:36:40.542Z,49.80
2018-07-17T08:50:41.583Z,49.50
2018-07-17T08:53:35.934Z,49.00
2018-07-17T08:56:08.761Z,49.30
2018-07-17T09:01:41.476Z,49.70
2018-07-17T09:04:23.014Z,50.60
2018-07-17T09:06:56.839Z,51.10
2018-07-17T09:15:14.440Z,51.10
2018-07-17T09:42:59.754Z,61.60
2018-07-17T09:45:42.269Z,78.60
2018-07-17T09:48:12.096Z,83.00
2018-07-17T09:50:48.110Z,84.60
2018-07-17T09:53:19.482Z,84.80
2018-07-17T09:56:28.122Z,85.50
2018-07-17T09:59:26.864Z,87.10
2018-07-17T10:02:08.424Z,89.40
2018-07-17T10:04:45.081Z,89.50
2018-07-17T10:07:22.840Z,89.10
2018-07-17T10:10:25.534Z,87.00
2018-07-17T10:13:10.652Z,86.80
2018-07-17T10:18:44.070Z,88.40
2018-07-17T10:22:08.840Z,88.10
2018-07-17T10:25:04.284Z,87.20
2018-07-17T10:31:32.336Z,89.10
2018-07-17T11:03:45.774Z,90.10
2018-07-17T11:16:56.009Z,91.10
2018-07-17T11:19:24.927Z,92.10
2018-07-17T11:21:53.730Z,92.90
2018-07-17T11:24:22.523Z,93.60
2018-07-17T11:26:51.341Z,93.60
2018-07-17T11:29:20.247Z,94.60
2018-07-17T11:31:49.076Z,94.10
2018-07-17T11:34:17.962Z,93.70
2018-07-17T11:36:47.130Z,92.70
2018-07-17T11:39:16.120Z,92.90
2018-07-17T11:41:44.875Z,91.80
2018-07-17T11:44:13.626Z,86.90
2018-07-17T11:46:42.571Z,82.20
2018-07-17T11:49:11.360Z,79.10
2018-07-17T11:51:40.102Z,74.60
2018-07-17T11:54:09.057Z,74.30
2018-07-17T11:56:38.097Z,74.30
2018-07-17T11:59:07.120Z,74.30
2018-07-17T12:01:36.031Z,75.50
2018-07-17T12:04:04.886Z,75.50
2018-07-17T12:06:34.406Z,74.50
2018-07-17T12:09:03.643Z,72.50
2018-07-17T12:11:32.650Z,73.30
2018-07-17T12:14:01.493Z,69.50
2018-07-17T12:16:30.431Z,67.40
2018-07-17T12:18:59.226Z,66.30
2018-07-17T12:21:28.173Z,67.60
2018-07-17T12:23:59.588Z,68.80
2018-07-17T12:26:28.402Z,67.80
2018-07-17T12:28:57.206Z,66.30
2018-07-17T12:31:26.278Z,65.50
2018-07-17T12:33:55.093Z,65.00
2018-07-17T12:36:23.927Z,64.60
2018-07-17T12:38:52.834Z,64.90
2018-07-17T12:41:22.568Z,65.40
2018-07-17T12:43:52.049Z,63.40
2018-07-17T12:46:20.978Z,64.40
2018-07-17T12:48:50.034Z,62.60
2018-07-17T12:51:19.703Z,59.20
2018-07-17T12:53:48.578Z,59.50
2018-07-17T12:56:17.505Z,58.20
2018-07-17T12:58:46.346Z,54.90
2018-07-17T13:01:15.095Z,53.50
2018-07-17T13:03:43.899Z,55.20
2018-07-17T13:06:12.888Z,56.90
2018-07-17T13:08:41.710Z,55.80
2018-07-17T13:11:11.293Z,56.70
2018-07-17T13:13:40.074Z,56.80
2018-07-17T13:16:08.960Z,54.00
2018-07-17T13:18:42.152Z,54.90
2018-07-17T13:21:11.038Z,55.60
2018-07-17T13:23:39.861Z,55.30
2018-07-17T13:26:08.576Z,55.10
2018-07-17T13:28:37.266Z,56.40
2018-07-17T13:31:06.053Z,55.70
2018-07-17T13:33:35.111Z,56.20
2018-07-17T13:36:03.861Z,56.00
2018-07-17T13:38:32.575Z,56.10
2018-07-17T13:41:01.243Z,56.20
2018-07-17T13:43:30.221Z,56.00
2018-07-17T13:45:59.004Z,55.60
2018-07-17T13:48:27.741Z,56.20
2018-07-17T13:53:24.847Z,55.60
2018-07-17T13:55:53.585Z,55.70
2018-07-17T13:58:22.709Z,54.40
2018-07-17T14:00:51.713Z,54.40
2018-07-17T14:03:20.433Z,54.60
2018-07-17T14:05:49.299Z,52.20
2018-07-17T14:08:18.138Z,52.10
2018-07-17T14:10:47.053Z,51.20
2018-07-17T14:13:15.747Z,51.30
2018-07-17T14:15:44.539Z,51.50
2018-07-17T14:18:13.533Z,51.80
2018-07-17T14:20:42.470Z,52.00
2018-07-17T14:23:11.433Z,51.20
2018-07-17T14:25:40.312Z,51.90
2018-07-17T14:28:09.078Z,53.10
2018-07-17T14:30:37.932Z,53.40
2018-07-17T14:33:06.964Z,53.20
2018-07-17T14:35:35.777Z,53.40
2018-07-17T14:38:04.619Z,54.30
2018-07-17T14:40:33.436Z,54.50
2018-07-17T14:43:02.299Z,53.90
2018-07-17T14:45:31.280Z,53.80
2018-07-17T14:48:00.187Z,54.40
2018-07-17T14:50:29.129Z,54.30
2018-07-17T14:52:58.167Z,54.20
2018-07-17T14:57:55.661Z,53.60
2018-07-17T15:00:25.449Z,53.80
2018-07-17T15:05:22.895Z,54.30
2018-07-17T15:07:53.133Z,53.90
2018-07-17T15:10:22.050Z,54.20
2018-07-17T15:12:52.248Z,53.90
2018-07-17T15:15:21.391Z,53.70
2018-07-17T15:17:50.284Z,54.40
2018-07-17T15:20:20.443Z,54.60
2018-07-17T15:22:52.174Z,54.00
2018-07-17T15:25:20.735Z,53.70
2018-07-17T15:27:49.754Z,54.20
2018-07-17T15:30:18.282Z,53.90
2018-07-17T15:32:46.766Z,53.80
2018-07-17T15:35:15.293Z,53.60
2018-07-17T15:37:43.709Z,53.40
2018-07-17T15:40:12.247Z,53.80
2018-07-17T15:45:12.763Z,53.50
2018-07-17T15:47:41.266Z,53.70
2018-07-17T15:50:10.316Z,54.60
2018-07-17T15:52:38.802Z,54.20
2018-07-17T16:00:04.303Z,54.20
2018-07-17T16:02:32.753Z,54.50
2018-07-17T16:05:01.300Z,54.30
2018-07-17T16:07:30.219Z,55.00
2018-07-17T16:09:58.809Z,55.00
2018-07-17T16:12:27.668Z,54.80
2018-07-17T16:14:56.178Z,54.80
2018-07-17T16:17:24.668Z,54.90
2018-07-17T16:19:53.203Z,54.80
2018-07-17T16:22:21.730Z,55.20
2018-07-17T16:27:19.144Z,55.40
2018-07-17T16:29:47.657Z,55.60
2018-07-17T16:32:16.715Z,55.90
2018-07-17T16:34:45.378Z,54.70
2018-07-17T16:37:13.898Z,52.90
2018-07-17T16:39:42.510Z,52.00
2018-07-17T16:42:11.104Z,52.10
2018-07-17T16:44:39.523Z,51.90
2018-07-17T16:47:08.202Z,52.80
2018-07-17T16:49:36.714Z,53.50
2018-07-17T16:52:05.474Z,54.20
2018-07-17T16:54:34.078Z,55.10
2018-07-17T16:57:02.603Z,55.80
2018-07-17T16:59:31.086Z,54.20
2018-07-17T17:01:59.514Z,53.90
2018-07-17T17:04:28.173Z,54.50
2018-07-17T17:06:56.621Z,54.00
2018-07-17T17:09:25.063Z,54.50
2018-07-17T17:11:53.663Z,54.40
2018-07-17T17:14:22.458Z,55.70
2018-07-17T17:16:51.729Z,55.90
2018-07-17T17:19:20.531Z,55.60
2018-07-17T17:21:49.242Z,56.00
2018-07-17T17:24:17.840Z,56.70
2018-07-17T17:26:46.377Z,57.50
2018-07-17T17:29:14.889Z,57.80
2018-07-17T17:31:43.316Z,58.20
2018-07-17T17:34:11.790Z,58.50
2018-07-17T17:36:40.328Z,59.10
2018-07-17T17:39:10.031Z,59.60
2018-07-17T17:41:38.633Z,59.60
2018-07-17T17:44:08.034Z,59.90
2018-07-17T17:46:36.823Z,59.90
2018-07-17T17:49:05.483Z,59.40
2018-07-17T17:51:34.078Z,59.80
2018-07-17T17:54:02.557Z,59.90
2018-07-17T17:56:31.042Z,60.50
2018-07-17T17:58:59.774Z,60.60
2018-07-17T18:01:28.534Z,60.70
2018-07-17T18:03:57.288Z,60.50
2018-07-17T18:06:26.027Z,60.40
2018-07-17T18:08:54.688Z,60.90
2018-07-17T18:11:23.218Z,59.90
2018-07-17T18:13:51.641Z,59.90
2018-07-17T18:16:20.131Z,59.80
2018-07-17T18:18:48.850Z,59.70
2018-07-17T18:21:17.361Z,60.10
2018-07-17T18:23:45.813Z,60.30
2018-07-17T18:26:14.290Z,60.30
2018-07-17T18:28:42.783Z,60.50
2018-07-17T18:31:11.234Z,60.60
2018-07-17T18:33:39.736Z,60.60
2018-07-17T18:36:08.246Z,60.50
2018-07-17T18:38:36.716Z,60.60
2018-07-17T18:41:05.242Z,61.00
2018-07-17T18:43:33.726Z,61.30
2018-07-17T18:46:02.199Z,61.50
2018-07-17T18:48:30.834Z,61.40
2018-07-17T18:50:59.326Z,61.60
2018-07-17T18:53:27.826Z,62.30
2018-07-17T18:55:56.680Z,62.40
2018-07-17T18:58:25.154Z,62.80
2018-07-17T19:00:53.630Z,63.00
2018-07-17T19:03:22.194Z,63.40
2018-07-17T19:05:50.792Z,64.10
2018-07-17T19:08:19.373Z,64.50
2018-07-17T19:10:48.053Z,65.00
2018-07-17T19:13:16.510Z,65.70
2018-07-17T19:15:44.965Z,65.80
2018-07-17T19:18:13.512Z,66.30
2018-07-17T19:20:41.966Z,66.80
2018-07-17T19:23:10.447Z,66.90
2018-07-17T19:25:38.962Z,67.70
2018-07-17T19:28:07.478Z,68.10
2018-07-17T19:33:04.180Z,68.50
2018-07-17T19:35:32.668Z,68.90
2018-07-17T19:38:01.439Z,69.20
2018-07-17T19:40:30.046Z,69.90
2018-07-17T19:42:58.581Z,70.10
2018-07-17T19:45:27.301Z,70.40
2018-07-17T19:47:55.965Z,71.10
2018-07-17T19:50:24.436Z,71.40
2018-07-17T19:52:53.263Z,71.60
2018-07-17T19:55:21.958Z,72.20
2018-07-17T19:57:50.572Z,72.40
2018-07-17T20:00:19.119Z,72.50
2018-07-17T20:02:47.778Z,72.70
2018-07-17T20:05:16.284Z,72.90
2018-07-17T20:07:44.760Z,73.10
2018-07-17T20:10:13.331Z,73.30
2018-07-17T20:12:41.918Z,73.40
2018-07-17T20:15:10.367Z,73.40
2018-07-17T20:17:38.930Z,73.60
2018-07-17T20:20:08.633Z,74.00
2018-07-17T20:22:37.422Z,74.20
2018-07-17T20:25:05.942Z,74.30
2018-07-17T20:27:34.445Z,75.10
2018-07-17T20:30:02.939Z,75.00
2018-07-17T20:34:59.614Z,75.20
2018-07-17T20:37:28.149Z,75.20
2018-07-17T20:39:56.696Z,75.20
2018-07-17T20:42:25.162Z,75.60
2018-07-17T20:44:53.949Z,76.30
2018-07-17T20:47:22.464Z,76.80
2018-07-17T20:49:50.970Z,77.10
2018-07-17T20:52:19.499Z,77.30
2018-07-17T20:54:47.990Z,77.70
2018-07-17T20:57:16.474Z,78.20
2018-07-17T20:59:44.910Z,78.40
2018-07-17T21:02:13.394Z,78.70
2018-07-17T21:04:41.990Z,79.20
2018-07-17T21:07:10.457Z,79.50
2018-07-17T21:09:38.947Z,80.00
2018-07-17T21:12:07.434Z,80.20
2018-07-17T21:14:35.907Z,80.60
2018-07-17T21:17:04.419Z,81.00
2018-07-17T21:19:32.847Z,81.30
2018-07-17T21:22:01.456Z,81.30
2018-07-17T21:24:30.007Z,81.30
2018-07-17T21:26:58.481Z,81.60
2018-07-17T21:29:27.037Z,81.90
2018-07-17T21:31:55.533Z,82.00
2018-07-17T21:34:23.969Z,82.00
2018-07-17T21:36:52.420Z,82.30
2018-07-17T21:39:21.223Z,82.60
2018-07-17T21:41:49.662Z,82.50
2018-07-17T21:46:46.252Z,83.00
2018-07-17T21:49:14.793Z,83.00
2018-07-17T21:51:43.238Z,83.50
2018-07-17T21:54:11.732Z,83.80
2018-07-17T21:56:40.165Z,84.10
2018-07-17T21:59:08.590Z,84.20
2018-07-17T22:01:37.314Z,84.60
2018-07-17T22:04:06.014Z,85.30
2018-07-17T22:06:34.561Z,85.80
2018-07-17T22:09:03.126Z,86.00
2018-07-17T22:11:31.590Z,86.50
2018-07-17T22:14:00.081Z,86.80
2018-07-17T22:16:28.628Z,87.00
2018-07-17T22:18:57.102Z,87.10
2018-07-17T22:21:25.588Z,87.50
2018-07-17T22:23:54.130Z,87.80
2018-07-17T22:26:22.582Z,88.20
2018-07-17T22:28:51.043Z,88.30
2018-07-17T22:31:19.538Z,88.50
2018-07-17T22:33:48.206Z,88.60
2018-07-17T22:36:16.926Z,88.90
2018-07-17T22:38:45.438Z,89.20
2018-07-17T22:41:14.148Z,89.00
2018-07-17T22:43:42.601Z,89.00
2018-07-17T22:46:11.108Z,89.20
2018-07-17T22:48:39.566Z,89.20
2018-07-17T22:51:08.028Z,89.30
2018-07-17T22:53:36.662Z,89.40
2018-07-17T22:56:05.254Z,89.40
2018-07-17T22:58:33.701Z,89.60
2018-07-17T23:01:02.410Z,90.00
2018-07-17T23:03:31.603Z,90.10
2018-07-17T23:06:00.010Z,90.20
2018-07-17T23:08:28.528Z,90.20
2018-07-17T23:10:56.970Z,90.20
2018-07-17T23:13:25.450Z,90.30
2018-07-17T23:15:53.966Z,90.30
2018-07-17T23:20:50.662Z,90.30
2018-07-17T23:23:19.146Z,90.40
2018-07-17T23:25:47.606Z,90.40
2018-07-17T23:28:16.047Z,90.40
2018-07-17T23:30:44.650Z,90.40
2018-07-17T23:33:13.218Z,90.50
2018-07-17T23:35:41.670Z,90.60
2018-07-17T23:38:10.137Z,90.50
2018-07-17T23:40:38.591Z,90.60
2018-07-17T23:43:07.170Z,90.60
2018-07-17T23:45:35.710Z,90.60
2018-07-17T23:48:04.225Z,90.70
2018-07-17T23:50:32.702Z,90.80
2018-07-17T23:53:01.213Z,90.80
2018-07-17T23:57:57.765Z,90.90
